sensor_id;sensor_type;location;lat;lon;timestamp;temperature;humidity
40534;DHT22;26233;51.894;10.192;2023-01-19T00:01:15;2.70;48.80
40534;DHT22;26233;51.894;10.192;2023-01-19T00:03:44;2.70;49.10
40534;DHT22;26233;51.894;10.192;2023-01-19T00:06:14;2.70;49.10
40534;DHT22;26233;51.894;10.192;2023-01-19T00:08:41;2.70;49.20
40534;DHT22;26233;51.894;10.192;2023-01-19T00:11:10;2.70;49.00
40534;DHT22;26233;51.894;10.192;2023-01-19T00:13:38;2.70;49.10
40534;DHT22;26233;51.894;10.192;2023-01-19T00:16:06;2.70;48.80
40534;DHT22;26233;51.894;10.192;2023-01-19T00:18:35;2.70;48.90
40534;DHT22;26233;51.894;10.192;2023-01-19T00:21:04;2.70;49.00
40534;DHT22;26233;51.894;10.192;2023-01-19T00:23:31;2.70;48.90
40534;DHT22;26233;51.894;10.192;2023-01-19T00:25:58;2.60;48.80
40534;DHT22;26233;51.894;10.192;2023-01-19T00:28:25;2.60;48.80
40534;DHT22;26233;51.894;10.192;2023-01-19T00:30:52;2.60;48.80
40534;DHT22;26233;51.894;10.192;2023-01-19T00:33:19;2.60;48.70
40534;DHT22;26233;51.894;10.192;2023-01-19T00:35:50;2.60;48.90
40534;DHT22;26233;51.894;10.192;2023-01-19T00:38:20;2.60;48.50
40534;DHT22;26233;51.894;10.192;2023-01-19T00:40:48;2.60;49.00
40534;DHT22;26233;51.894;10.192;2023-01-19T00:43:15;2.60;49.00
40534;DHT22;26233;51.894;10.192;2023-01-19T00:45:42;2.60;49.00
40534;DHT22;26233;51.894;10.192;2023-01-19T00:48:10;2.50;49.00
40534;DHT22;26233;51.894;10.192;2023-01-19T00:50:37;2.50;48.50
40534;DHT22;26233;51.894;10.192;2023-01-19T00:53:04;2.50;48.50
40534;DHT22;26233;51.894;10.192;2023-01-19T00:55:32;2.50;48.80
40534;DHT22;26233;51.894;10.192;2023-01-19T00:58:00;2.50;48.80
40534;DHT22;26233;51.894;10.192;2023-01-19T01:00:28;2.50;49.20
40534;DHT22;26233;51.894;10.192;2023-01-19T01:02:57;2.40;48.70
40534;DHT22;26233;51.894;10.192;2023-01-19T01:05:23;2.40;48.70
40534;DHT22;26233;51.894;10.192;2023-01-19T01:07:50;2.40;48.50
40534;DHT22;26233;51.894;10.192;2023-01-19T01:10:19;2.40;48.50
40534;DHT22;26233;51.894;10.192;2023-01-19T01:12:49;2.40;48.70
40534;DHT22;26233;51.894;10.192;2023-01-19T01:15:17;2.40;48.50
40534;DHT22;26233;51.894;10.192;2023-01-19T01:17:45;2.40;48.60
40534;DHT22;26233;51.894;10.192;2023-01-19T01:20:17;2.40;48.70
40534;DHT22;26233;51.894;10.192;2023-01-19T01:22:47;2.40;48.70
40534;DHT22;26233;51.894;10.192;2023-01-19T01:25:16;2.40;48.60
40534;DHT22;26233;51.894;10.192;2023-01-19T01:27:44;2.40;48.70
40534;DHT22;26233;51.894;10.192;2023-01-19T01:30:14;2.40;48.90
40534;DHT22;26233;51.894;10.192;2023-01-19T01:32:41;2.40;48.80
40534;DHT22;26233;51.894;10.192;2023-01-19T01:35:09;2.40;48.90
40534;DHT22;26233;51.894;10.192;2023-01-19T01:37:37;2.40;49.00
40534;DHT22;26233;51.894;10.192;2023-01-19T01:40:05;2.40;49.00
40534;DHT22;26233;51.894;10.192;2023-01-19T01:42:33;2.50;48.60
40534;DHT22;26233;51.894;10.192;2023-01-19T01:45:02;2.40;48.80
40534;DHT22;26233;51.894;10.192;2023-01-19T01:47:36;2.50;49.00
40534;DHT22;26233;51.894;10.192;2023-01-19T01:50:11;2.50;48.20
40534;DHT22;26233;51.894;10.192;2023-01-19T01:52:44;2.40;48.60
40534;DHT22;26233;51.894;10.192;2023-01-19T01:55:13;2.50;48.70
40534;DHT22;26233;51.894;10.192;2023-01-19T01:57:44;2.40;48.70
40534;DHT22;26233;51.894;10.192;2023-01-19T02:00:14;2.40;48.70
40534;DHT22;26233;51.894;10.192;2023-01-19T02:02:44;2.40;48.60
40534;DHT22;26233;51.894;10.192;2023-01-19T02:05:19;2.40;48.60
40534;DHT22;26233;51.894;10.192;2023-01-19T02:07:52;2.40;48.70
40534;DHT22;26233;51.894;10.192;2023-01-19T02:10:40;2.30;48.70
40534;DHT22;26233;51.894;10.192;2023-01-19T02:13:27;2.40;48.70
40534;DHT22;26233;51.894;10.192;2023-01-19T02:15:56;2.30;48.80
40534;DHT22;26233;51.894;10.192;2023-01-19T02:18:28;2.30;48.70
40534;DHT22;26233;51.894;10.192;2023-01-19T02:21:03;2.30;48.70
40534;DHT22;26233;51.894;10.192;2023-01-19T02:23:43;2.30;48.70
40534;DHT22;26233;51.894;10.192;2023-01-19T02:26:13;2.30;48.60
40534;DHT22;26233;51.894;10.192;2023-01-19T02:28:45;2.20;48.50
40534;DHT22;26233;51.894;10.192;2023-01-19T02:31:15;2.20;48.50
40534;DHT22;26233;51.894;10.192;2023-01-19T02:33:42;2.30;48.70
40534;DHT22;26233;51.894;10.192;2023-01-19T02:36:10;2.20;48.90
40534;DHT22;26233;51.894;10.192;2023-01-19T02:38:41;2.20;48.80
40534;DHT22;26233;51.894;10.192;2023-01-19T02:41:12;2.20;48.80
40534;DHT22;26233;51.894;10.192;2023-01-19T02:43:42;2.20;48.80
40534;DHT22;26233;51.894;10.192;2023-01-19T02:46:09;2.20;49.00
40534;DHT22;26233;51.894;10.192;2023-01-19T02:48:37;2.20;48.80
40534;DHT22;26233;51.894;10.192;2023-01-19T02:51:11;2.30;49.20
40534;DHT22;26233;51.894;10.192;2023-01-19T02:54:12;2.30;48.80
40534;DHT22;26233;51.894;10.192;2023-01-19T02:56:54;2.30;48.30
40534;DHT22;26233;51.894;10.192;2023-01-19T02:59:36;2.30;48.80
40534;DHT22;26233;51.894;10.192;2023-01-19T03:02:20;2.20;48.70
40534;DHT22;26233;51.894;10.192;2023-01-19T03:04:58;2.20;48.40
40534;DHT22;26233;51.894;10.192;2023-01-19T03:07:36;2.30;48.70
40534;DHT22;26233;51.894;10.192;2023-01-19T03:10:16;2.20;48.50
40534;DHT22;26233;51.894;10.192;2023-01-19T03:12:52;2.20;48.40
40534;DHT22;26233;51.894;10.192;2023-01-19T03:15:24;2.20;48.80
40534;DHT22;26233;51.894;10.192;2023-01-19T03:17:55;2.20;48.70
40534;DHT22;26233;51.894;10.192;2023-01-19T03:20:23;2.20;48.90
40534;DHT22;26233;51.894;10.192;2023-01-19T03:22:55;2.20;48.80
40534;DHT22;26233;51.894;10.192;2023-01-19T03:25:30;2.20;48.90
40534;DHT22;26233;51.894;10.192;2023-01-19T03:28:00;2.20;48.50
40534;DHT22;26233;51.894;10.192;2023-01-19T03:30:30;2.20;48.90
40534;DHT22;26233;51.894;10.192;2023-01-19T03:33:01;2.20;49.10
40534;DHT22;26233;51.894;10.192;2023-01-19T03:35:34;2.20;48.80
40534;DHT22;26233;51.894;10.192;2023-01-19T03:38:05;2.20;49.00
40534;DHT22;26233;51.894;10.192;2023-01-19T03:40:39;2.20;48.70
40534;DHT22;26233;51.894;10.192;2023-01-19T03:43:07;2.20;48.80
40534;DHT22;26233;51.894;10.192;2023-01-19T03:45:37;2.20;49.10
40534;DHT22;26233;51.894;10.192;2023-01-19T03:48:05;2.20;48.90
40534;DHT22;26233;51.894;10.192;2023-01-19T03:50:33;2.20;49.00
40534;DHT22;26233;51.894;10.192;2023-01-19T03:53:04;2.20;49.20
40534;DHT22;26233;51.894;10.192;2023-01-19T03:55:32;2.30;49.30
40534;DHT22;26233;51.894;10.192;2023-01-19T03:58:01;2.30;49.30
40534;DHT22;26233;51.894;10.192;2023-01-19T04:00:28;2.30;49.30
40534;DHT22;26233;51.894;10.192;2023-01-19T04:02:56;2.30;49.20
40534;DHT22;26233;51.894;10.192;2023-01-19T04:05:23;2.30;49.30
40534;DHT22;26233;51.894;10.192;2023-01-19T04:07:54;2.30;49.20
40534;DHT22;26233;51.894;10.192;2023-01-19T04:10:21;2.30;49.20
40534;DHT22;26233;51.894;10.192;2023-01-19T04:12:48;2.30;49.20
40534;DHT22;26233;51.894;10.192;2023-01-19T04:15:17;2.30;49.10
40534;DHT22;26233;51.894;10.192;2023-01-19T04:17:44;2.40;49.40
40534;DHT22;26233;51.894;10.192;2023-01-19T04:20:12;2.40;49.40
40534;DHT22;26233;51.894;10.192;2023-01-19T04:22:38;2.40;49.50
40534;DHT22;26233;51.894;10.192;2023-01-19T04:25:08;2.40;49.20
40534;DHT22;26233;51.894;10.192;2023-01-19T04:27:36;2.40;49.10
40534;DHT22;26233;51.894;10.192;2023-01-19T04:30:06;2.40;49.10
40534;DHT22;26233;51.894;10.192;2023-01-19T04:32:39;2.40;49.20
40534;DHT22;26233;51.894;10.192;2023-01-19T04:35:07;2.40;49.10
40534;DHT22;26233;51.894;10.192;2023-01-19T04:37:34;2.40;48.90
40534;DHT22;26233;51.894;10.192;2023-01-19T04:40:01;2.40;49.00
40534;DHT22;26233;51.894;10.192;2023-01-19T04:42:28;2.40;49.10
40534;DHT22;26233;51.894;10.192;2023-01-19T04:44:55;2.40;49.10
40534;DHT22;26233;51.894;10.192;2023-01-19T04:47:22;2.40;49.30
40534;DHT22;26233;51.894;10.192;2023-01-19T04:49:50;2.40;48.90
40534;DHT22;26233;51.894;10.192;2023-01-19T04:52:17;2.40;49.00
40534;DHT22;26233;51.894;10.192;2023-01-19T04:54:44;2.40;49.10
40534;DHT22;26233;51.894;10.192;2023-01-19T04:57:12;2.40;49.30
40534;DHT22;26233;51.894;10.192;2023-01-19T04:59:39;2.40;49.30
40534;DHT22;26233;51.894;10.192;2023-01-19T05:02:06;2.50;49.40
40534;DHT22;26233;51.894;10.192;2023-01-19T05:04:33;2.50;49.30
40534;DHT22;26233;51.894;10.192;2023-01-19T05:07:01;2.40;49.00
40534;DHT22;26233;51.894;10.192;2023-01-19T05:09:31;2.40;49.00
40534;DHT22;26233;51.894;10.192;2023-01-19T05:11:58;2.50;49.40
40534;DHT22;26233;51.894;10.192;2023-01-19T05:14:25;2.50;49.20
40534;DHT22;26233;51.894;10.192;2023-01-19T05:16:52;2.40;49.30
40534;DHT22;26233;51.894;10.192;2023-01-19T05:19:19;2.50;49.50
40534;DHT22;26233;51.894;10.192;2023-01-19T05:21:46;2.50;49.50
40534;DHT22;26233;51.894;10.192;2023-01-19T05:24:17;2.40;49.20
40534;DHT22;26233;51.894;10.192;2023-01-19T05:26:45;2.40;49.10
40534;DHT22;26233;51.894;10.192;2023-01-19T05:29:12;2.50;49.20
40534;DHT22;26233;51.894;10.192;2023-01-19T05:31:39;2.40;49.10
40534;DHT22;26233;51.894;10.192;2023-01-19T05:34:06;2.50;49.40
40534;DHT22;26233;51.894;10.192;2023-01-19T05:36:35;2.50;49.50
40534;DHT22;26233;51.894;10.192;2023-01-19T05:39:03;2.50;49.40
40534;DHT22;26233;51.894;10.192;2023-01-19T05:41:31;2.50;49.30
40534;DHT22;26233;51.894;10.192;2023-01-19T05:43:58;2.50;49.50
40534;DHT22;26233;51.894;10.192;2023-01-19T05:46:25;2.50;49.50
40534;DHT22;26233;51.894;10.192;2023-01-19T05:48:54;2.60;49.60
40534;DHT22;26233;51.894;10.192;2023-01-19T05:51:22;2.60;49.70
40534;DHT22;26233;51.894;10.192;2023-01-19T05:53:49;2.60;50.20
40534;DHT22;26233;51.894;10.192;2023-01-19T05:56:16;2.60;49.80
40534;DHT22;26233;51.894;10.192;2023-01-19T05:58:46;2.60;49.70
40534;DHT22;26233;51.894;10.192;2023-01-19T06:01:13;2.70;49.80
40534;DHT22;26233;51.894;10.192;2023-01-19T06:03:40;2.70;49.60
40534;DHT22;26233;51.894;10.192;2023-01-19T06:06:07;2.70;49.70
40534;DHT22;26233;51.894;10.192;2023-01-19T06:08:34;2.70;49.60
40534;DHT22;26233;51.894;10.192;2023-01-19T06:11:04;2.70;49.50
40534;DHT22;26233;51.894;10.192;2023-01-19T06:13:32;2.70;49.30
40534;DHT22;26233;51.894;10.192;2023-01-19T06:16:01;2.70;49.50
40534;DHT22;26233;51.894;10.192;2023-01-19T06:18:29;2.70;49.40
40534;DHT22;26233;51.894;10.192;2023-01-19T06:20:56;2.70;49.50
40534;DHT22;26233;51.894;10.192;2023-01-19T06:23:28;2.70;49.60
40534;DHT22;26233;51.894;10.192;2023-01-19T06:25:56;2.70;49.60
40534;DHT22;26233;51.894;10.192;2023-01-19T06:28:23;2.70;49.70
40534;DHT22;26233;51.894;10.192;2023-01-19T06:30:51;2.70;49.70
40534;DHT22;26233;51.894;10.192;2023-01-19T06:33:21;2.70;49.50
40534;DHT22;26233;51.894;10.192;2023-01-19T06:35:49;2.70;49.30
40534;DHT22;26233;51.894;10.192;2023-01-19T06:38:17;2.70;49.20
40534;DHT22;26233;51.894;10.192;2023-01-19T06:40:44;2.70;49.20
40534;DHT22;26233;51.894;10.192;2023-01-19T06:43:12;2.70;49.40
40534;DHT22;26233;51.894;10.192;2023-01-19T06:45:39;2.60;49.40
40534;DHT22;26233;51.894;10.192;2023-01-19T06:48:07;2.60;49.40
40534;DHT22;26233;51.894;10.192;2023-01-19T06:50:36;2.60;49.40
40534;DHT22;26233;51.894;10.192;2023-01-19T06:53:03;2.60;49.00
40534;DHT22;26233;51.894;10.192;2023-01-19T06:55:30;2.50;48.80
40534;DHT22;26233;51.894;10.192;2023-01-19T06:58:00;2.50;49.10
40534;DHT22;26233;51.894;10.192;2023-01-19T07:00:30;2.50;49.20
40534;DHT22;26233;51.894;10.192;2023-01-19T07:02:57;2.50;49.30
40534;DHT22;26233;51.894;10.192;2023-01-19T07:05:27;2.50;49.30
40534;DHT22;26233;51.894;10.192;2023-01-19T07:07:55;2.50;49.40
40534;DHT22;26233;51.894;10.192;2023-01-19T07:10:23;2.50;49.40
40534;DHT22;26233;51.894;10.192;2023-01-19T07:12:50;2.50;49.50
40534;DHT22;26233;51.894;10.192;2023-01-19T07:15:18;2.50;49.40
40534;DHT22;26233;51.894;10.192;2023-01-19T07:17:47;2.50;49.30
40534;DHT22;26233;51.894;10.192;2023-01-19T07:20:15;2.50;49.20
40534;DHT22;26233;51.894;10.192;2023-01-19T07:22:44;2.40;49.30
40534;DHT22;26233;51.894;10.192;2023-01-19T07:25:13;2.40;49.40
40534;DHT22;26233;51.894;10.192;2023-01-19T07:27:40;2.40;49.30
40534;DHT22;26233;51.894;10.192;2023-01-19T07:30:08;2.40;49.60
40534;DHT22;26233;51.894;10.192;2023-01-19T07:32:36;2.40;49.70
40534;DHT22;26233;51.894;10.192;2023-01-19T07:35:03;2.50;50.00
40534;DHT22;26233;51.894;10.192;2023-01-19T07:37:31;2.50;49.90
40534;DHT22;26233;51.894;10.192;2023-01-19T07:39:58;2.50;49.60
40534;DHT22;26233;51.894;10.192;2023-01-19T07:42:27;2.60;50.00
40534;DHT22;26233;51.894;10.192;2023-01-19T07:44:54;2.60;50.00
40534;DHT22;26233;51.894;10.192;2023-01-19T07:47:21;2.60;49.90
40534;DHT22;26233;51.894;10.192;2023-01-19T07:49:48;2.60;49.80
40534;DHT22;26233;51.894;10.192;2023-01-19T07:52:15;2.70;50.00
40534;DHT22;26233;51.894;10.192;2023-01-19T07:54:42;2.70;50.00
40534;DHT22;26233;51.894;10.192;2023-01-19T07:57:09;2.70;49.70
40534;DHT22;26233;51.894;10.192;2023-01-19T07:59:38;2.70;49.60
40534;DHT22;26233;51.894;10.192;2023-01-19T08:02:05;2.80;49.80
40534;DHT22;26233;51.894;10.192;2023-01-19T08:04:32;2.80;49.90
40534;DHT22;26233;51.894;10.192;2023-01-19T08:06:59;2.80;49.90
40534;DHT22;26233;51.894;10.192;2023-01-19T08:09:26;2.90;49.90
40534;DHT22;26233;51.894;10.192;2023-01-19T08:11:53;2.90;50.20
40534;DHT22;26233;51.894;10.192;2023-01-19T08:14:20;2.90;50.20
40534;DHT22;26233;51.894;10.192;2023-01-19T08:16:48;3.00;50.30
40534;DHT22;26233;51.894;10.192;2023-01-19T08:19:15;3.00;50.10
40534;DHT22;26233;51.894;10.192;2023-01-19T08:21:43;3.10;50.20
40534;DHT22;26233;51.894;10.192;2023-01-19T08:24:17;3.10;50.40
40534;DHT22;26233;51.894;10.192;2023-01-19T08:26:47;3.20;50.10
40534;DHT22;26233;51.894;10.192;2023-01-19T08:29:15;3.20;50.30
40534;DHT22;26233;51.894;10.192;2023-01-19T08:31:42;3.30;50.20
40534;DHT22;26233;51.894;10.192;2023-01-19T08:34:10;3.20;49.70
40534;DHT22;26233;51.894;10.192;2023-01-19T08:36:37;3.30;49.80
40534;DHT22;26233;51.894;10.192;2023-01-19T08:39:04;3.30;49.40
40534;DHT22;26233;51.894;10.192;2023-01-19T08:41:31;3.30;49.10
40534;DHT22;26233;51.894;10.192;2023-01-19T08:43:58;3.30;49.50
40534;DHT22;26233;51.894;10.192;2023-01-19T08:46:28;3.20;49.40
40534;DHT22;26233;51.894;10.192;2023-01-19T08:48:55;3.20;49.30
40534;DHT22;26233;51.894;10.192;2023-01-19T08:51:24;3.20;49.60
40534;DHT22;26233;51.894;10.192;2023-01-19T08:53:51;3.20;49.50
40534;DHT22;26233;51.894;10.192;2023-01-19T08:56:18;3.20;49.60
40534;DHT22;26233;51.894;10.192;2023-01-19T08:58:45;3.20;49.30
40534;DHT22;26233;51.894;10.192;2023-01-19T09:01:13;3.20;49.80
40534;DHT22;26233;51.894;10.192;2023-01-19T09:03:41;3.20;49.80
40534;DHT22;26233;51.894;10.192;2023-01-19T09:06:10;3.30;49.60
40534;DHT22;26233;51.894;10.192;2023-01-19T09:08:44;3.30;49.20
40534;DHT22;26233;51.894;10.192;2023-01-19T09:11:13;3.30;49.90
40534;DHT22;26233;51.894;10.192;2023-01-19T09:13:41;3.30;49.90
40534;DHT22;26233;51.894;10.192;2023-01-19T09:16:09;3.30;50.00
40534;DHT22;26233;51.894;10.192;2023-01-19T09:18:37;3.40;50.20
40534;DHT22;26233;51.894;10.192;2023-01-19T09:21:05;3.50;50.30
40534;DHT22;26233;51.894;10.192;2023-01-19T09:23:35;3.50;50.20
40534;DHT22;26233;51.894;10.192;2023-01-19T09:26:04;3.60;50.20
40534;DHT22;26233;51.894;10.192;2023-01-19T09:28:31;3.60;50.10
40534;DHT22;26233;51.894;10.192;2023-01-19T09:31:02;3.60;50.00
40534;DHT22;26233;51.894;10.192;2023-01-19T09:33:30;3.70;49.90
40534;DHT22;26233;51.894;10.192;2023-01-19T09:35:57;3.60;49.80
40534;DHT22;26233;51.894;10.192;2023-01-19T09:38:24;3.70;49.70
40534;DHT22;26233;51.894;10.192;2023-01-19T09:40:52;3.60;49.70
40534;DHT22;26233;51.894;10.192;2023-01-19T09:43:32;3.60;49.70
40534;DHT22;26233;51.894;10.192;2023-01-19T09:46:05;3.60;49.20
40534;DHT22;26233;51.894;10.192;2023-01-19T09:48:46;3.60;49.40
40534;DHT22;26233;51.894;10.192;2023-01-19T09:51:16;3.60;49.70
40534;DHT22;26233;51.894;10.192;2023-01-19T09:53:53;3.60;49.80
40534;DHT22;26233;51.894;10.192;2023-01-19T09:56:23;3.50;49.60
40534;DHT22;26233;51.894;10.192;2023-01-19T09:58:51;3.50;49.80
40534;DHT22;26233;51.894;10.192;2023-01-19T10:01:33;3.40;49.70
40534;DHT22;26233;51.894;10.192;2023-01-19T10:04:26;3.40;49.60
40534;DHT22;26233;51.894;10.192;2023-01-19T10:07:15;3.30;49.50
40534;DHT22;26233;51.894;10.192;2023-01-19T10:10:09;3.20;49.60
40534;DHT22;26233;51.894;10.192;2023-01-19T10:12:54;3.20;49.90
40534;DHT22;26233;51.894;10.192;2023-01-19T10:15:36;3.20;50.00
40534;DHT22;26233;51.894;10.192;2023-01-19T10:18:12;3.10;50.00
40534;DHT22;26233;51.894;10.192;2023-01-19T10:20:47;3.00;50.10
40534;DHT22;26233;51.894;10.192;2023-01-19T10:23:22;3.00;50.20
40534;DHT22;26233;51.894;10.192;2023-01-19T10:25:55;2.90;50.20
40534;DHT22;26233;51.894;10.192;2023-01-19T10:28:25;3.00;50.40
40534;DHT22;26233;51.894;10.192;2023-01-19T10:30:55;2.90;50.50
40534;DHT22;26233;51.894;10.192;2023-01-19T10:33:22;3.00;50.70
40534;DHT22;26233;51.894;10.192;2023-01-19T10:35:49;2.90;50.70
40534;DHT22;26233;51.894;10.192;2023-01-19T10:38:16;2.90;50.80
40534;DHT22;26233;51.894;10.192;2023-01-19T10:40:51;3.00;50.90
40534;DHT22;26233;51.894;10.192;2023-01-19T10:43:35;3.00;51.00
40534;DHT22;26233;51.894;10.192;2023-01-19T10:46:07;3.00;51.00
40534;DHT22;26233;51.894;10.192;2023-01-19T10:48:43;3.00;51.00
40534;DHT22;26233;51.894;10.192;2023-01-19T10:51:11;3.00;51.10
40534;DHT22;26233;51.894;10.192;2023-01-19T10:53:41;3.00;51.10
40534;DHT22;26233;51.894;10.192;2023-01-19T10:56:15;3.10;51.30
40534;DHT22;26233;51.894;10.192;2023-01-19T10:58:43;3.10;51.30
40534;DHT22;26233;51.894;10.192;2023-01-19T11:01:17;3.10;51.30
40534;DHT22;26233;51.894;10.192;2023-01-19T11:03:46;3.10;51.20
40534;DHT22;26233;51.894;10.192;2023-01-19T11:06:21;3.10;51.20
40534;DHT22;26233;51.894;10.192;2023-01-19T11:08:51;3.10;51.80
40534;DHT22;26233;51.894;10.192;2023-01-19T11:11:21;3.20;51.50
40534;DHT22;26233;51.894;10.192;2023-01-19T11:14:03;3.20;51.50
40534;DHT22;26233;51.894;10.192;2023-01-19T11:16:36;3.30;51.60
40534;DHT22;26233;51.894;10.192;2023-01-19T11:19:16;3.30;51.60
40534;DHT22;26233;51.894;10.192;2023-01-19T11:21:45;3.30;52.20
40534;DHT22;26233;51.894;10.192;2023-01-19T11:24:15;3.30;51.60
40534;DHT22;26233;51.894;10.192;2023-01-19T11:26:44;3.40;51.60
40534;DHT22;26233;51.894;10.192;2023-01-19T11:29:20;3.40;51.60
40534;DHT22;26233;51.894;10.192;2023-01-19T11:31:50;3.40;51.50
40534;DHT22;26233;51.894;10.192;2023-01-19T11:34:24;3.40;51.70
40534;DHT22;26233;51.894;10.192;2023-01-19T11:36:58;3.40;51.50
40534;DHT22;26233;51.894;10.192;2023-01-19T11:39:28;3.40;51.60
40534;DHT22;26233;51.894;10.192;2023-01-19T11:41:58;3.40;51.60
40534;DHT22;26233;51.894;10.192;2023-01-19T11:44:29;3.40;51.50
40534;DHT22;26233;51.894;10.192;2023-01-19T11:47:03;3.50;51.60
40534;DHT22;26233;51.894;10.192;2023-01-19T11:49:39;3.50;51.60
40534;DHT22;26233;51.894;10.192;2023-01-19T11:52:14;3.50;51.70
40534;DHT22;26233;51.894;10.192;2023-01-19T11:54:51;3.50;51.70
40534;DHT22;26233;51.894;10.192;2023-01-19T11:57:21;3.50;51.60
40534;DHT22;26233;51.894;10.192;2023-01-19T11:59:48;3.40;51.50
40534;DHT22;26233;51.894;10.192;2023-01-19T12:02:22;3.40;51.60
40534;DHT22;26233;51.894;10.192;2023-01-19T12:04:55;3.50;51.80
40534;DHT22;26233;51.894;10.192;2023-01-19T12:07:28;3.50;51.80
40534;DHT22;26233;51.894;10.192;2023-01-19T12:10:05;3.50;51.70
40534;DHT22;26233;51.894;10.192;2023-01-19T12:12:39;3.50;51.70
40534;DHT22;26233;51.894;10.192;2023-01-19T12:15:17;3.50;51.80
40534;DHT22;26233;51.894;10.192;2023-01-19T12:17:50;3.50;51.80
40534;DHT22;26233;51.894;10.192;2023-01-19T12:20:25;3.60;52.00
40534;DHT22;26233;51.894;10.192;2023-01-19T12:23:06;3.50;51.90
40534;DHT22;26233;51.894;10.192;2023-01-19T12:25:46;3.60;52.10
40534;DHT22;26233;51.894;10.192;2023-01-19T12:28:27;3.60;52.10
40534;DHT22;26233;51.894;10.192;2023-01-19T12:30:57;3.60;52.10
40534;DHT22;26233;51.894;10.192;2023-01-19T12:33:37;3.60;52.10
40534;DHT22;26233;51.894;10.192;2023-01-19T12:36:09;3.70;52.10
40534;DHT22;26233;51.894;10.192;2023-01-19T12:38:43;3.60;52.10
40534;DHT22;26233;51.894;10.192;2023-01-19T12:41:17;3.70;52.10
40534;DHT22;26233;51.894;10.192;2023-01-19T12:43:46;3.70;52.10
40534;DHT22;26233;51.894;10.192;2023-01-19T12:46:25;3.70;52.10
40534;DHT22;26233;51.894;10.192;2023-01-19T12:49:08;3.70;52.00
40534;DHT22;26233;51.894;10.192;2023-01-19T12:51:48;3.70;51.90
40534;DHT22;26233;51.894;10.192;2023-01-19T12:54:22;3.70;52.10
40534;DHT22;26233;51.894;10.192;2023-01-19T12:56:57;3.70;52.10
40534;DHT22;26233;51.894;10.192;2023-01-19T12:59:27;3.70;52.10
40534;DHT22;26233;51.894;10.192;2023-01-19T13:05:21;3.70;52.10
40534;DHT22;26233;51.894;10.192;2023-01-19T13:08:12;3.70;52.20
40534;DHT22;26233;51.894;10.192;2023-01-19T13:11:18;3.70;52.20
40534;DHT22;26233;51.894;10.192;2023-01-19T13:17:05;3.80;52.30
40534;DHT22;26233;51.894;10.192;2023-01-19T13:19:49;3.80;52.40
40534;DHT22;26233;51.894;10.192;2023-01-19T13:25:48;3.80;52.20
40534;DHT22;26233;51.894;10.192;2023-01-19T13:28:18;3.80;52.30
40534;DHT22;26233;51.894;10.192;2023-01-19T13:30:54;3.80;52.30
40534;DHT22;26233;51.894;10.192;2023-01-19T13:33:25;3.80;52.30
40534;DHT22;26233;51.894;10.192;2023-01-19T13:35:56;3.80;52.30
40534;DHT22;26233;51.894;10.192;2023-01-19T13:38:25;3.70;52.20
40534;DHT22;26233;51.894;10.192;2023-01-19T13:40:55;3.80;52.40
40534;DHT22;26233;51.894;10.192;2023-01-19T13:43:28;3.70;52.30
40534;DHT22;26233;51.894;10.192;2023-01-19T13:45:59;3.70;52.40
40534;DHT22;26233;51.894;10.192;2023-01-19T13:48:30;3.70;52.40
40534;DHT22;26233;51.894;10.192;2023-01-19T13:51:00;3.70;52.40
40534;DHT22;26233;51.894;10.192;2023-01-19T13:53:29;3.70;52.40
40534;DHT22;26233;51.894;10.192;2023-01-19T13:56:17;3.70;52.50
40534;DHT22;26233;51.894;10.192;2023-01-19T13:59:13;3.60;52.50
40534;DHT22;26233;51.894;10.192;2023-01-19T14:01:41;3.60;52.50
40534;DHT22;26233;51.894;10.192;2023-01-19T14:04:26;3.60;52.60
40534;DHT22;26233;51.894;10.192;2023-01-19T14:06:56;3.60;52.70
40534;DHT22;26233;51.894;10.192;2023-01-19T14:09:25;3.60;52.80
40534;DHT22;26233;51.894;10.192;2023-01-19T14:12:10;3.60;52.80
40534;DHT22;26233;51.894;10.192;2023-01-19T14:14:39;3.60;52.90
40534;DHT22;26233;51.894;10.192;2023-01-19T14:17:24;3.70;53.00
40534;DHT22;26233;51.894;10.192;2023-01-19T14:19:56;3.70;53.00
40534;DHT22;26233;51.894;10.192;2023-01-19T14:22:42;3.70;53.10
40534;DHT22;26233;51.894;10.192;2023-01-19T14:25:30;3.80;53.10
40534;DHT22;26233;51.894;10.192;2023-01-19T14:28:31;3.70;53.00
40534;DHT22;26233;51.894;10.192;2023-01-19T14:31:17;3.70;53.00
40534;DHT22;26233;51.894;10.192;2023-01-19T14:33:47;3.80;53.20
40534;DHT22;26233;51.894;10.192;2023-01-19T14:36:27;3.80;53.20
40534;DHT22;26233;51.894;10.192;2023-01-19T14:38:59;3.80;53.20
40534;DHT22;26233;51.894;10.192;2023-01-19T14:41:37;3.80;53.20
40534;DHT22;26233;51.894;10.192;2023-01-19T14:44:10;3.80;53.30
40534;DHT22;26233;51.894;10.192;2023-01-19T14:46:44;3.80;53.20
40534;DHT22;26233;51.894;10.192;2023-01-19T14:49:17;3.90;53.30
40534;DHT22;26233;51.894;10.192;2023-01-19T14:51:50;3.90;53.30
40534;DHT22;26233;51.894;10.192;2023-01-19T14:54:18;3.90;53.30
40534;DHT22;26233;51.894;10.192;2023-01-19T14:56:52;3.90;53.30
40534;DHT22;26233;51.894;10.192;2023-01-19T14:59:21;3.90;53.30
40534;DHT22;26233;51.894;10.192;2023-01-19T15:01:48;4.00;53.40
40534;DHT22;26233;51.894;10.192;2023-01-19T15:04:15;3.90;53.30
40534;DHT22;26233;51.894;10.192;2023-01-19T15:06:42;4.00;53.40
40534;DHT22;26233;51.894;10.192;2023-01-19T15:09:14;4.00;53.40
40534;DHT22;26233;51.894;10.192;2023-01-19T15:11:42;4.00;53.40
40534;DHT22;26233;51.894;10.192;2023-01-19T15:14:12;4.00;53.40
40534;DHT22;26233;51.894;10.192;2023-01-19T15:16:41;4.00;53.50
40534;DHT22;26233;51.894;10.192;2023-01-19T15:19:10;4.00;53.50
40534;DHT22;26233;51.894;10.192;2023-01-19T15:21:38;4.00;53.50
40534;DHT22;26233;51.894;10.192;2023-01-19T15:24:07;4.00;53.50
40534;DHT22;26233;51.894;10.192;2023-01-19T15:26:36;4.00;53.40
40534;DHT22;26233;51.894;10.192;2023-01-19T15:29:20;4.10;53.50
40534;DHT22;26233;51.894;10.192;2023-01-19T15:31:50;4.10;53.50
40534;DHT22;26233;51.894;10.192;2023-01-19T15:34:17;4.10;53.50
40534;DHT22;26233;51.894;10.192;2023-01-19T15:36:44;4.10;53.50
40534;DHT22;26233;51.894;10.192;2023-01-19T15:39:11;4.10;53.50
40534;DHT22;26233;51.894;10.192;2023-01-19T15:41:39;4.10;53.50
40534;DHT22;26233;51.894;10.192;2023-01-19T15:44:08;4.10;53.50
40534;DHT22;26233;51.894;10.192;2023-01-19T15:46:36;4.10;53.60
40534;DHT22;26233;51.894;10.192;2023-01-19T15:49:05;4.10;53.60
40534;DHT22;26233;51.894;10.192;2023-01-19T15:51:32;4.10;53.60
40534;DHT22;26233;51.894;10.192;2023-01-19T15:53:59;4.10;53.60
40534;DHT22;26233;51.894;10.192;2023-01-19T15:56:27;4.10;53.60
40534;DHT22;26233;51.894;10.192;2023-01-19T15:58:56;4.20;53.70
40534;DHT22;26233;51.894;10.192;2023-01-19T16:01:25;4.10;53.60
40534;DHT22;26233;51.894;10.192;2023-01-19T16:03:57;4.10;53.60